createdAt,value
2019-02-26T00:01:54.767Z,6.11
2019-02-26T00:04:25.470Z,6.14
2019-02-26T00:06:55.749Z,6.16
2019-02-26T00:09:27.055Z,6.20
2019-02-26T00:11:55.331Z,6.21
2019-02-26T00:14:24.892Z,6.12
2019-02-26T00:16:54.848Z,6.08
2019-02-26T00:19:23.794Z,6.14
2019-02-26T00:21:54.337Z,6.05
2019-02-26T00:24:23.433Z,6.18
2019-02-26T00:26:52.353Z,6.20
2019-02-26T00:29:23.154Z,6.21
2019-02-26T00:31:52.919Z,6.23
2019-02-26T00:34:22.444Z,6.28
2019-02-26T00:36:51.367Z,6.30
2019-02-26T00:39:21.043Z,6.39
2019-02-26T00:41:53.255Z,6.41
2019-02-26T00:44:25.074Z,6.54
2019-02-26T00:46:53.608Z,6.58
2019-02-26T00:49:23.629Z,6.68
2019-02-26T00:51:53.448Z,6.69
2019-02-26T00:54:24.509Z,6.73
2019-02-26T00:56:52.985Z,6.70
2019-02-26T00:59:21.912Z,6.81
2019-02-26T01:01:52.619Z,6.83
2019-02-26T01:04:21.673Z,6.83
2019-02-26T01:06:50.649Z,6.91
2019-02-26T01:09:19.823Z,6.91
2019-02-26T01:11:49.860Z,6.90
2019-02-26T01:14:20.345Z,7.06
2019-02-26T01:16:50.005Z,7.06
2019-02-26T01:19:19.884Z,7.12
2019-02-26T01:21:48.984Z,7.17
2019-02-26T01:24:17.970Z,7.09
2019-02-26T01:26:46.844Z,7.17
2019-02-26T01:29:18.596Z,7.13
2019-02-26T01:31:46.615Z,7.09
2019-02-26T01:34:16.331Z,7.05
2019-02-26T01:36:47.754Z,6.97
2019-02-26T01:39:19.239Z,6.99
2019-02-26T01:41:48.459Z,6.98
2019-02-26T01:44:18.410Z,7.00
2019-02-26T01:46:47.565Z,6.95
2019-02-26T01:49:17.146Z,6.96
2019-02-26T01:51:49.173Z,6.95
2019-02-26T01:54:17.705Z,6.86
2019-02-26T01:56:46.547Z,6.84
2019-02-26T01:59:18.224Z,6.80
2019-02-26T02:01:46.522Z,6.76
2019-02-26T02:04:17.226Z,6.78
2019-02-26T02:06:47.285Z,6.78
2019-02-26T02:09:18.131Z,6.75
2019-02-26T02:11:46.887Z,6.76
2019-02-26T02:14:17.059Z,6.69
2019-02-26T02:16:46.065Z,6.77
2019-02-26T02:19:17.999Z,6.71
2019-02-26T02:21:47.002Z,6.68
2019-02-26T02:24:17.484Z,6.66
2019-02-26T02:26:49.855Z,6.62
2019-02-26T02:29:19.164Z,6.60
2019-02-26T02:31:48.105Z,6.62
2019-02-26T02:34:17.053Z,6.64
2019-02-26T02:36:46.025Z,6.76
2019-02-26T02:39:17.757Z,6.80
2019-02-26T02:41:48.745Z,6.82
2019-02-26T02:44:17.892Z,6.82
2019-02-26T02:46:47.365Z,6.83
2019-02-26T02:49:17.923Z,6.92
2019-02-26T02:51:47.066Z,6.89
2019-02-26T02:54:18.113Z,6.93
2019-02-26T02:56:46.525Z,6.97
2019-02-26T02:59:16.578Z,6.95
2019-02-26T03:01:48.376Z,6.90
2019-02-26T03:04:19.536Z,6.91
2019-02-26T03:06:46.845Z,6.90
2019-02-26T03:09:17.750Z,6.91
2019-02-26T03:11:48.870Z,6.97
2019-02-26T03:14:18.676Z,7.05
2019-02-26T03:16:48.783Z,7.05
2019-02-26T03:19:18.316Z,7.05
2019-02-26T03:21:49.508Z,7.16
2019-02-26T03:24:17.884Z,7.18
2019-02-26T03:26:46.765Z,7.23
2019-02-26T03:29:15.666Z,7.27
2019-02-26T03:31:46.765Z,7.29
2019-02-26T03:34:20.306Z,7.18
2019-02-26T03:36:45.867Z,7.26
2019-02-26T03:39:14.833Z,7.35
2019-02-26T03:41:45.832Z,7.30
2019-02-26T03:44:14.405Z,7.29
2019-02-26T03:46:43.286Z,7.32
2019-02-26T03:49:12.164Z,7.33
2019-02-26T03:51:41.151Z,7.41
2019-02-26T03:54:10.066Z,7.34
2019-02-26T03:56:38.946Z,7.37
2019-02-26T03:59:11.121Z,7.34
2019-02-26T04:01:38.845Z,7.35
2019-02-26T04:04:07.819Z,7.42
2019-02-26T04:06:38.948Z,7.43
2019-02-26T04:09:08.452Z,7.43
2019-02-26T04:11:39.628Z,7.44
2019-02-26T04:14:12.176Z,7.39
2019-02-26T04:16:41.118Z,7.42
2019-02-26T04:19:10.384Z,7.42
2019-02-26T04:22:17.997Z,7.50
2019-02-26T04:24:46.126Z,7.50
2019-02-26T04:27:36.325Z,7.53
2019-02-26T04:30:11.630Z,7.52
2019-02-26T04:32:50.154Z,7.49
2019-02-26T04:35:20.945Z,7.54
2019-02-26T04:38:06.324Z,7.57
2019-02-26T04:40:47.224Z,7.58
2019-02-26T04:43:25.449Z,7.64
2019-02-26T04:46:08.516Z,7.61
2019-02-26T04:48:40.555Z,7.62
2019-02-26T04:51:09.737Z,7.64
2019-02-26T04:53:38.604Z,7.69
2019-02-26T04:56:12.111Z,7.59
2019-02-26T04:58:40.375Z,7.70
2019-02-26T05:01:10.112Z,7.63
2019-02-26T05:03:40.032Z,7.63
2019-02-26T05:06:10.863Z,7.64
2019-02-26T05:08:40.239Z,7.52
2019-02-26T05:11:14.856Z,7.55
2019-02-26T05:13:40.783Z,7.50
2019-02-26T05:16:09.687Z,7.45
2019-02-26T05:18:38.620Z,7.42
2019-02-26T05:21:10.214Z,7.33
2019-02-26T05:23:38.211Z,7.37
2019-02-26T05:26:08.370Z,7.35
2019-02-26T05:28:40.842Z,7.35
2019-02-26T05:31:09.157Z,7.37
2019-02-26T05:33:39.074Z,7.32
2019-02-26T05:36:09.473Z,7.34
2019-02-26T05:38:38.632Z,7.33
2019-02-26T05:41:07.604Z,7.27
2019-02-26T05:43:36.477Z,7.18
2019-02-26T05:46:05.459Z,7.22
2019-02-26T05:48:34.388Z,7.19
2019-02-26T05:51:05.704Z,7.21
2019-02-26T05:53:33.931Z,7.13
2019-02-26T05:56:03.124Z,7.13
2019-02-26T05:58:33.600Z,7.05
2019-02-26T06:01:02.826Z,7.00
2019-02-26T06:03:31.725Z,7.04
2019-02-26T06:06:00.753Z,7.04
2019-02-26T06:08:32.816Z,7.05
2019-02-26T06:11:00.326Z,7.02
2019-02-26T06:13:31.508Z,7.12
2019-02-26T06:16:02.207Z,7.12
2019-02-26T06:18:30.518Z,7.03
2019-02-26T06:21:01.189Z,7.11
2019-02-26T06:23:31.711Z,7.12
2019-02-26T06:26:02.311Z,7.06
2019-02-26T06:28:35.510Z,7.08
2019-02-26T06:31:01.976Z,7.07
2019-02-26T06:33:34.116Z,7.07
2019-02-26T06:36:04.121Z,7.02
2019-02-26T06:38:33.293Z,6.96
2019-02-26T06:41:02.946Z,7.00
2019-02-26T06:43:37.473Z,6.87
2019-02-26T06:46:09.157Z,6.89
2019-02-26T06:48:35.905Z,6.90
2019-02-26T06:51:07.084Z,6.83
2019-02-26T06:53:35.493Z,6.84
2019-02-26T06:56:04.429Z,6.81
2019-02-26T06:58:33.411Z,6.89
2019-02-26T07:01:02.475Z,6.88
2019-02-26T07:03:31.564Z,6.80
2019-02-26T07:06:03.191Z,6.84
2019-02-26T07:08:31.133Z,6.70
2019-02-26T07:11:00.094Z,6.78
2019-02-26T07:13:29.122Z,6.75
2019-02-26T07:15:58.064Z,6.82
2019-02-26T07:18:26.992Z,6.67
2019-02-26T07:20:57.723Z,6.67
2019-02-26T07:23:29.213Z,6.70
2019-02-26T07:25:57.186Z,6.72
2019-02-26T07:28:26.861Z,6.67
2019-02-26T07:30:55.945Z,6.67
2019-02-26T07:33:24.894Z,6.57
2019-02-26T07:35:56.408Z,6.57
2019-02-26T07:38:25.251Z,6.64
2019-02-26T07:40:56.550Z,6.47
2019-02-26T07:43:25.785Z,6.55
2019-02-26T07:45:54.646Z,6.59
2019-02-26T07:48:25.884Z,6.53
2019-02-26T07:50:55.576Z,6.46
2019-02-26T07:53:24.642Z,6.51
2019-02-26T07:55:53.574Z,6.42
2019-02-26T07:58:22.545Z,6.53
2019-02-26T08:00:52.183Z,6.57
2019-02-26T08:03:23.771Z,6.50
2019-02-26T08:05:52.009Z,6.56
2019-02-26T08:08:21.079Z,6.56
2019-02-26T08:10:50.780Z,6.59
2019-02-26T08:13:20.731Z,6.56
2019-02-26T08:15:49.764Z,6.58
2019-02-26T08:18:18.784Z,6.54
2019-02-26T08:20:47.693Z,6.54
2019-02-26T08:23:17.192Z,6.52
2019-02-26T08:25:47.413Z,6.56
2019-02-26T08:28:18.534Z,6.63
2019-02-26T08:30:47.483Z,6.75
2019-02-26T08:33:17.627Z,6.77
2019-02-26T08:35:46.493Z,6.73
2019-02-26T08:38:16.311Z,6.76
2019-02-26T08:40:45.490Z,6.61
2019-02-26T08:43:14.425Z,6.64
2019-02-26T08:45:43.413Z,6.64
2019-02-26T08:48:14.706Z,6.76
2019-02-26T08:50:44.041Z,6.80
2019-02-26T08:53:13.645Z,6.81
2019-02-26T08:55:42.604Z,6.77
2019-02-26T08:58:12.522Z,6.80
2019-02-26T09:00:41.666Z,6.85
2019-02-26T09:03:11.406Z,6.97
2019-02-26T09:05:41.305Z,7.00
2019-02-26T09:08:12.824Z,6.99
2019-02-26T09:10:41.753Z,7.15
2019-02-26T09:13:13.834Z,7.22
2019-02-26T09:15:43.167Z,7.13
2019-02-26T09:18:12.324Z,7.15
2019-02-26T09:20:41.327Z,7.18
2019-02-26T09:23:10.245Z,7.13
2019-02-26T09:25:39.369Z,6.99
2019-02-26T09:28:08.413Z,6.95
2019-02-26T09:30:38.841Z,6.96
2019-02-26T09:33:09.187Z,6.99
2019-02-26T09:35:38.706Z,7.11
2019-02-26T09:38:07.556Z,7.04
2019-02-26T09:40:36.574Z,6.96
2019-02-26T09:43:06.236Z,7.11
2019-02-26T09:45:35.245Z,7.17
2019-02-26T09:48:04.266Z,7.24
2019-02-26T09:50:33.134Z,7.38
2019-02-26T09:53:02.145Z,7.42
2019-02-26T09:55:31.073Z,7.33
2019-02-26T09:57:59.958Z,7.33
2019-02-26T10:00:29.635Z,7.32
2019-02-26T10:02:59.065Z,7.23
2019-02-26T10:05:27.925Z,7.28
2019-02-26T10:07:59.454Z,7.37
2019-02-26T10:10:30.834Z,7.47
2019-02-26T10:12:59.902Z,7.41
2019-02-26T10:15:29.083Z,7.46
2019-02-26T10:17:59.583Z,7.52
2019-02-26T10:20:31.649Z,7.60
2019-02-26T10:23:02.844Z,7.78
2019-02-26T10:25:31.971Z,7.86
2019-02-26T10:28:05.718Z,7.84
2019-02-26T10:30:33.986Z,7.91
2019-02-26T10:33:02.900Z,7.90
2019-02-26T10:35:33.584Z,8.18
2019-02-26T10:38:05.731Z,8.26
2019-02-26T10:40:35.589Z,8.31
2019-02-26T10:43:04.484Z,8.52
2019-02-26T10:45:38.619Z,8.71
2019-02-26T10:48:04.333Z,8.55
2019-02-26T10:50:33.266Z,8.60
2019-02-26T10:53:09.638Z,8.56
2019-02-26T10:55:38.329Z,8.47
2019-02-26T10:58:06.991Z,8.45
2019-02-26T11:00:37.534Z,8.65
2019-02-26T11:03:06.546Z,8.98
2019-02-26T11:05:39.183Z,9.40
2019-02-26T11:08:09.389Z,9.82
2019-02-26T11:10:41.378Z,9.86
2019-02-26T11:13:08.082Z,9.88
2019-02-26T11:15:37.004Z,9.92
2019-02-26T11:18:06.075Z,10.05
2019-02-26T11:20:35.622Z,9.64
2019-02-26T11:23:06.651Z,9.66
2019-02-26T11:25:36.946Z,9.61
2019-02-26T11:28:07.549Z,9.55
2019-02-26T11:30:36.608Z,9.69
2019-02-26T11:33:08.047Z,9.56
2019-02-26T11:35:36.304Z,9.58
2019-02-26T11:38:05.365Z,9.64
2019-02-26T11:40:34.305Z,9.81
2019-02-26T11:43:11.298Z,10.02
2019-02-26T11:45:35.147Z,10.35
2019-02-26T11:48:06.666Z,10.80
2019-02-26T11:50:35.434Z,11.15
2019-02-26T11:53:04.405Z,11.56
2019-02-26T11:55:36.874Z,11.78
2019-02-26T11:58:07.754Z,12.00
2019-02-26T12:00:42.821Z,11.52
2019-02-26T12:03:13.154Z,11.31
2019-02-26T12:05:42.023Z,11.67
2019-02-26T12:08:11.569Z,11.74
2019-02-26T12:10:41.568Z,11.69
2019-02-26T12:13:10.607Z,11.68
2019-02-26T12:15:42.630Z,11.45
2019-02-26T12:18:12.652Z,11.54
2019-02-26T12:20:42.990Z,11.35
2019-02-26T12:23:14.300Z,11.19
2019-02-26T12:25:42.436Z,11.60
2019-02-26T12:28:13.615Z,12.10
2019-02-26T12:30:44.738Z,12.49
2019-02-26T12:33:14.686Z,12.50
2019-02-26T12:35:43.787Z,12.51
2019-02-26T12:38:20.673Z,11.96
2019-02-26T12:40:46.387Z,12.04
2019-02-26T12:43:16.355Z,12.01
2019-02-26T12:45:44.666Z,12.21
2019-02-26T12:48:16.317Z,12.09
2019-02-26T12:50:44.217Z,12.57
2019-02-26T12:53:17.192Z,12.38
2019-02-26T12:55:43.745Z,11.95
2019-02-26T12:58:15.246Z,11.57
2019-02-26T13:00:43.382Z,11.38
2019-02-26T13:03:15.780Z,11.25
2019-02-26T13:05:45.592Z,11.29
2019-02-26T13:08:19.015Z,11.14
2019-02-26T13:10:49.653Z,11.22
2019-02-26T13:13:15.533Z,11.26
2019-02-26T13:15:44.444Z,11.60
2019-02-26T13:18:13.328Z,12.17
2019-02-26T13:20:42.264Z,12.47
2019-02-26T13:23:20.809Z,12.75
2019-02-26T13:25:41.845Z,13.26
2019-02-26T13:28:10.785Z,13.89
2019-02-26T13:30:39.756Z,14.16
2019-02-26T13:33:10.854Z,14.04
2019-02-26T13:35:42.042Z,13.56
2019-02-26T13:38:10.004Z,13.10
2019-02-26T13:40:38.907Z,12.95
2019-02-26T13:43:08.748Z,13.31
2019-02-26T13:45:37.767Z,13.51
2019-02-26T13:48:06.766Z,14.12
2019-02-26T13:50:38.976Z,14.54
2019-02-26T13:53:07.086Z,14.67
2019-02-26T13:55:36.487Z,14.54
2019-02-26T13:58:11.690Z,14.84
2019-02-26T14:00:36.425Z,14.67
2019-02-26T14:03:05.830Z,14.41
2019-02-26T14:05:38.076Z,14.30
2019-02-26T14:08:05.606Z,14.33
2019-02-26T14:10:34.485Z,13.73
2019-02-26T14:13:03.908Z,13.13
2019-02-26T14:15:33.185Z,12.83
2019-02-26T14:18:02.147Z,12.64
2019-02-26T14:20:31.205Z,12.47
2019-02-26T14:23:00.255Z,12.26
2019-02-26T14:25:29.365Z,12.50
2019-02-26T14:27:58.624Z,12.65
2019-02-26T14:30:27.647Z,12.64
2019-02-26T14:32:56.725Z,12.75
2019-02-26T14:35:25.612Z,12.86
2019-02-26T14:37:54.584Z,12.95
2019-02-26T14:40:23.664Z,12.93
2019-02-26T14:42:52.565Z,13.11
2019-02-26T14:45:25.673Z,12.99
2019-02-26T14:47:55.125Z,12.69
2019-02-26T14:50:26.391Z,12.36
2019-02-26T14:52:55.592Z,12.33
2019-02-26T14:55:24.635Z,12.11
2019-02-26T14:57:53.624Z,12.06
2019-02-26T15:00:33.005Z,12.18
2019-02-26T15:03:01.966Z,11.71
2019-02-26T15:05:30.932Z,11.67
2019-02-26T15:08:00.005Z,11.80
2019-02-26T15:10:28.965Z,11.87
2019-02-26T15:12:58.005Z,11.75
2019-02-26T15:15:27.057Z,11.73
2019-02-26T15:17:56.005Z,11.75
2019-02-26T15:20:25.696Z,11.66
2019-02-26T15:22:54.907Z,11.64
2019-02-26T15:25:25.925Z,11.78
2019-02-26T15:28:04.250Z,11.45
2019-02-26T15:30:25.782Z,11.41
2019-02-26T15:32:54.748Z,11.29
2019-02-26T15:35:24.105Z,11.14
2019-02-26T15:38:00.242Z,11.02
2019-02-26T15:40:29.405Z,10.88
2019-02-26T15:42:58.267Z,10.72
2019-02-26T15:45:32.186Z,10.39
2019-02-26T15:48:03.797Z,10.44
2019-02-26T15:50:30.784Z,10.37
2019-02-26T15:52:59.776Z,10.26
2019-02-26T15:55:30.464Z,10.05
2019-02-26T15:58:03.021Z,9.80
2019-02-26T16:00:30.347Z,9.67
2019-02-26T16:03:00.019Z,9.58
2019-02-26T16:05:37.449Z,9.53
2019-02-26T16:08:06.708Z,9.20
2019-02-26T16:10:35.546Z,9.06
2019-02-26T16:13:04.765Z,8.94
2019-02-26T16:15:35.686Z,8.75
2019-02-26T16:18:04.758Z,8.62
2019-02-26T16:20:33.762Z,8.57
2019-02-26T16:23:02.824Z,8.41
2019-02-26T16:25:31.808Z,8.45
2019-02-26T16:28:01.718Z,8.36
2019-02-26T16:30:31.104Z,8.24
2019-02-26T16:33:00.081Z,8.11
2019-02-26T16:35:29.275Z,8.01
2019-02-26T16:37:58.245Z,7.90
2019-02-26T16:40:31.354Z,7.79
2019-02-26T16:42:58.054Z,7.72
2019-02-26T16:45:28.070Z,7.60
2019-02-26T16:47:57.527Z,7.57
2019-02-26T16:50:28.616Z,7.49
2019-02-26T16:53:00.052Z,7.46
2019-02-26T16:55:28.664Z,7.42
2019-02-26T16:58:02.352Z,7.36
2019-02-26T17:00:29.945Z,7.32
2019-02-26T17:03:00.949Z,7.29
2019-02-26T17:05:30.072Z,7.27
2019-02-26T17:07:59.423Z,7.26
2019-02-26T17:10:30.473Z,7.22
2019-02-26T17:13:02.334Z,7.09
2019-02-26T17:15:38.205Z,6.90
2019-02-26T17:18:09.810Z,6.95
2019-02-26T17:20:38.584Z,6.61
2019-02-26T17:23:07.749Z,6.70
2019-02-26T17:25:37.046Z,6.69
2019-02-26T17:28:06.304Z,6.69
2019-02-26T17:30:35.765Z,6.64
2019-02-26T17:33:05.071Z,6.69
2019-02-26T17:35:34.293Z,6.66
2019-02-26T17:38:03.546Z,6.51
2019-02-26T17:40:33.894Z,6.35
2019-02-26T17:43:03.669Z,6.28
2019-02-26T17:45:37.313Z,6.26
2019-02-26T17:48:07.186Z,6.06
2019-02-26T17:50:38.102Z,6.22
2019-02-26T17:53:08.125Z,6.15
2019-02-26T17:55:37.386Z,6.14
2019-02-26T17:58:09.730Z,6.23
2019-02-26T18:00:39.085Z,6.24
2019-02-26T18:03:08.168Z,6.10
2019-02-26T18:05:43.428Z,5.93
2019-02-26T18:08:08.192Z,5.96
2019-02-26T18:10:37.366Z,5.93
2019-02-26T18:13:06.546Z,5.88
2019-02-26T18:15:35.786Z,5.80
2019-02-26T18:18:04.985Z,6.01
2019-02-26T18:20:34.185Z,5.99
2019-02-26T18:23:03.467Z,5.98
2019-02-26T18:25:32.704Z,5.97
2019-02-26T18:28:01.904Z,6.05
2019-02-26T18:30:31.555Z,5.95
2019-02-26T18:33:00.846Z,5.93
2019-02-26T18:35:30.044Z,5.83
2019-02-26T18:37:59.805Z,5.93
2019-02-26T18:40:29.092Z,5.94
2019-02-26T18:42:58.332Z,5.92
2019-02-26T18:45:28.994Z,5.91
2019-02-26T18:47:58.432Z,5.89
2019-02-26T18:50:29.529Z,5.85
2019-02-26T18:52:59.026Z,5.82
2019-02-26T18:55:32.281Z,5.79
2019-02-26T18:58:00.143Z,5.81
2019-02-26T19:00:34.233Z,5.76
2019-02-26T19:03:03.638Z,5.75
2019-02-26T19:05:32.945Z,5.71
2019-02-26T19:08:05.581Z,5.69
2019-02-26T19:10:33.287Z,5.66
2019-02-26T19:13:03.239Z,5.66
2019-02-26T19:15:34.285Z,5.65
2019-02-26T19:18:03.549Z,5.58
2019-02-26T19:20:35.567Z,5.58
2019-02-26T19:23:04.931Z,5.55
2019-02-26T19:25:34.183Z,5.55
2019-02-26T19:28:03.532Z,5.52
2019-02-26T19:30:36.771Z,5.52
2019-02-26T19:33:03.806Z,5.49
2019-02-26T19:35:38.119Z,5.39
2019-02-26T19:38:05.390Z,5.39
2019-02-26T19:40:52.633Z,5.36
2019-02-26T19:43:23.772Z,5.36
2019-02-26T19:45:52.956Z,5.33
2019-02-26T19:48:22.288Z,5.30
2019-02-26T19:50:51.711Z,5.27
2019-02-26T19:53:21.036Z,5.28
2019-02-26T19:55:50.759Z,5.25
2019-02-26T19:58:20.146Z,5.26
2019-02-26T20:00:52.717Z,5.27
2019-02-26T20:03:20.456Z,5.22
2019-02-26T20:05:49.807Z,5.24
2019-02-26T20:08:19.866Z,5.21
2019-02-26T20:10:53.384Z,5.11
2019-02-26T20:13:20.186Z,5.13
2019-02-26T20:15:49.546Z,5.06
2019-02-26T20:18:20.945Z,5.02
2019-02-26T20:20:49.949Z,4.91
2019-02-26T20:23:19.273Z,5.01
2019-02-26T20:25:48.590Z,4.98
2019-02-26T20:28:19.413Z,4.93
2019-02-26T20:30:48.746Z,4.88
2019-02-26T20:33:18.008Z,4.88
2019-02-26T20:35:47.369Z,4.84
2019-02-26T20:38:16.690Z,4.87
2019-02-26T20:40:48.678Z,4.81
2019-02-26T20:43:17.009Z,4.84
2019-02-26T20:45:48.689Z,4.85
2019-02-26T20:48:17.288Z,4.86
2019-02-26T20:50:46.666Z,4.84
2019-02-26T20:53:17.207Z,4.77
2019-02-26T20:55:52.401Z,4.80
2019-02-26T20:58:18.148Z,4.76
2019-02-26T21:00:48.290Z,4.82
2019-02-26T21:03:17.647Z,4.79
2019-02-26T21:05:46.966Z,4.81
2019-02-26T21:08:16.237Z,4.81
2019-02-26T21:10:47.666Z,4.73
2019-02-26T21:13:16.466Z,4.75
2019-02-26T21:15:47.311Z,4.66
2019-02-26T21:18:16.582Z,4.60
2019-02-26T21:20:46.008Z,4.60
2019-02-26T21:23:15.207Z,4.53
2019-02-26T21:25:47.403Z,4.49
2019-02-26T21:28:15.336Z,4.45
2019-02-26T21:30:45.804Z,4.45
2019-02-26T21:33:15.448Z,4.41
2019-02-26T21:35:44.628Z,4.37
2019-02-26T21:38:13.710Z,4.36
2019-02-26T21:40:42.886Z,4.32
2019-02-26T21:43:11.956Z,4.30
2019-02-26T21:45:41.106Z,4.36
2019-02-26T21:48:10.110Z,4.33
2019-02-26T21:50:39.156Z,4.27
2019-02-26T21:53:08.221Z,4.19
2019-02-26T21:55:44.460Z,4.22
2019-02-26T21:58:07.900Z,4.22
2019-02-26T22:00:39.144Z,4.21
2019-02-26T22:03:07.467Z,4.16
2019-02-26T22:05:37.908Z,4.13
2019-02-26T22:08:07.463Z,4.14
2019-02-26T22:10:36.409Z,4.18
2019-02-26T22:13:05.469Z,4.13
2019-02-26T22:15:35.690Z,4.11
2019-02-26T22:18:05.109Z,4.08
2019-02-26T22:20:36.454Z,3.91
2019-02-26T22:23:04.675Z,3.92
2019-02-26T22:25:33.576Z,3.83
2019-02-26T22:28:02.577Z,3.67
2019-02-26T22:30:31.548Z,3.58
2019-02-26T22:33:00.447Z,3.82
2019-02-26T22:35:29.375Z,3.73
2019-02-26T22:37:58.369Z,3.68
2019-02-26T22:40:29.221Z,3.73
2019-02-26T22:42:58.008Z,3.69
2019-02-26T22:45:27.964Z,3.59
2019-02-26T22:47:57.552Z,3.37
2019-02-26T22:50:27.279Z,3.41
2019-02-26T22:52:56.788Z,3.34
2019-02-26T22:55:25.769Z,3.27
2019-02-26T22:57:54.707Z,3.30
2019-02-26T23:00:55.488Z,3.24
2019-02-26T23:03:24.629Z,3.16
2019-02-26T23:05:53.714Z,3.19
2019-02-26T23:08:22.989Z,3.17
2019-02-26T23:10:52.132Z,3.18
2019-02-26T23:13:21.268Z,3.31
2019-02-26T23:15:50.770Z,3.37
2019-02-26T23:18:20.868Z,3.34
2019-02-26T23:20:49.927Z,3.39
2019-02-26T23:23:21.726Z,3.37
2019-02-26T23:25:49.567Z,3.27
2019-02-26T23:28:21.694Z,3.30
2019-02-26T23:30:49.607Z,3.31
2019-02-26T23:33:18.768Z,3.26
2019-02-26T23:35:47.947Z,3.21
2019-02-26T23:38:16.968Z,3.26
2019-02-26T23:40:46.039Z,3.20
2019-02-26T23:43:15.128Z,3.19
2019-02-26T23:45:44.138Z,3.18
2019-02-26T23:48:13.250Z,3.19
2019-02-26T23:50:42.228Z,3.09
2019-02-26T23:53:11.228Z,3.07
2019-02-26T23:55:40.268Z,3.02
2019-02-26T23:58:09.307Z,2.94
